createdAt,value
2024-02-19T00:01:11.340Z,1.65
2024-02-19T00:03:37.845Z,1.98
2024-02-19T00:06:04.345Z,1.92
2024-02-19T00:08:30.758Z,1.63
2024-02-19T00:10:57.231Z,1.65
2024-02-19T00:13:23.715Z,1.70
2024-02-19T00:15:50.183Z,1.75
2024-02-19T00:18:16.662Z,1.90
2024-02-19T00:20:43.626Z,2.10
2024-02-19T00:23:10.050Z,2.00
2024-02-19T00:25:36.486Z,2.00
2024-02-19T00:28:02.962Z,2.00
2024-02-19T00:30:29.441Z,2.10
2024-02-19T00:32:56.021Z,2.30
2024-02-19T00:35:22.589Z,2.20
2024-02-19T00:37:49.621Z,2.03
2024-02-19T00:40:16.602Z,1.27
2024-02-19T00:42:43.132Z,0.80
2024-02-19T00:45:09.836Z,1.00
2024-02-19T00:47:36.235Z,0.50
2024-02-19T00:50:03.031Z,0.52
2024-02-19T00:52:29.597Z,0.43
2024-02-19T00:54:56.035Z,0.30
2024-02-19T00:57:22.471Z,0.40
2024-02-19T00:59:48.915Z,0.20
2024-02-19T01:02:15.476Z,0.40
2024-02-19T01:04:42.066Z,0.40
2024-02-19T01:07:08.568Z,0.30
2024-02-19T01:09:35.053Z,0.60
2024-02-19T01:12:01.516Z,0.43
2024-02-19T01:14:27.933Z,0.40
2024-02-19T01:16:54.358Z,0.50
2024-02-19T01:19:21.024Z,0.68
2024-02-19T01:21:47.572Z,0.50
2024-02-19T01:24:14.014Z,0.60
2024-02-19T01:26:40.442Z,0.70
2024-02-19T01:29:06.871Z,0.80
2024-02-19T01:31:33.296Z,0.60
2024-02-19T01:33:59.800Z,0.85
2024-02-19T01:36:26.267Z,0.80
2024-02-19T01:38:52.671Z,1.00
2024-02-19T01:41:19.103Z,1.00
2024-02-19T01:43:45.537Z,1.65
2024-02-19T01:46:13.100Z,1.13
2024-02-19T01:48:39.692Z,1.23
2024-02-19T01:51:06.560Z,1.05
2024-02-19T01:53:32.988Z,1.35
2024-02-19T01:55:59.817Z,1.52
2024-02-19T01:58:26.901Z,1.27
2024-02-19T02:00:54.122Z,1.33
2024-02-19T02:03:23.151Z,1.20
2024-02-19T02:05:49.872Z,1.25
2024-02-19T02:08:16.577Z,1.20
2024-02-19T02:10:43.130Z,1.40
2024-02-19T02:13:09.715Z,2.03
2024-02-19T02:15:36.304Z,1.33
2024-02-19T02:18:02.910Z,1.52
2024-02-19T02:20:29.372Z,1.95
2024-02-19T02:22:56.632Z,1.58
2024-02-19T02:25:23.089Z,1.50
2024-02-19T02:27:49.555Z,1.27
2024-02-19T02:30:16.065Z,2.03
2024-02-19T02:32:42.579Z,1.45
2024-02-19T02:35:09.509Z,1.42
2024-02-19T02:37:35.926Z,1.45
2024-02-19T02:40:02.396Z,1.48
2024-02-19T02:42:28.833Z,1.08
2024-02-19T02:44:55.235Z,1.08
2024-02-19T02:47:21.667Z,1.17
2024-02-19T02:49:48.133Z,1.10
2024-02-19T02:52:14.640Z,0.80
2024-02-19T02:54:41.100Z,1.13
2024-02-19T02:57:07.575Z,0.70
2024-02-19T02:59:34.016Z,1.00
2024-02-19T03:02:00.616Z,1.13
2024-02-19T03:04:27.275Z,1.65
2024-02-19T03:06:53.890Z,1.23
2024-02-19T03:09:20.389Z,1.40
2024-02-19T03:11:46.823Z,1.20
2024-02-19T03:14:13.253Z,1.02
2024-02-19T03:16:39.670Z,0.90
2024-02-19T03:19:08.758Z,1.00
2024-02-19T03:21:35.219Z,0.80
2024-02-19T03:24:01.662Z,0.82
2024-02-19T03:26:37.494Z,1.13
2024-02-19T03:29:11.458Z,1.30
2024-02-19T03:31:37.959Z,1.23
2024-02-19T03:34:04.418Z,1.30
2024-02-19T03:36:30.906Z,1.42
2024-02-19T03:38:57.319Z,1.77
2024-02-19T03:41:23.765Z,2.20
2024-02-19T03:43:50.189Z,2.10
2024-02-19T03:46:16.924Z,2.20
2024-02-19T03:48:43.488Z,2.50
2024-02-19T03:51:09.933Z,1.73
2024-02-19T03:53:36.359Z,2.15
2024-02-19T03:56:03.236Z,2.63
2024-02-19T03:58:29.687Z,2.10
2024-02-19T04:00:56.182Z,2.50
2024-02-19T04:03:22.685Z,2.60
2024-02-19T04:05:49.121Z,2.90
2024-02-19T04:08:15.518Z,2.83
2024-02-19T04:10:41.964Z,3.17
2024-02-19T04:13:08.436Z,2.85
2024-02-19T04:15:34.904Z,2.95
2024-02-19T04:18:01.461Z,3.22
2024-02-19T04:20:27.964Z,3.03
2024-02-19T04:22:54.388Z,3.33
2024-02-19T04:25:20.884Z,3.50
2024-02-19T04:27:47.337Z,3.60
2024-02-19T04:30:13.770Z,2.83
2024-02-19T04:32:40.280Z,2.80
2024-02-19T04:35:07.303Z,3.10
2024-02-19T04:37:33.774Z,2.78
2024-02-19T04:40:00.326Z,2.30
2024-02-19T04:42:26.815Z,2.50
2024-02-19T04:44:53.261Z,2.20
2024-02-19T04:47:19.731Z,2.15
2024-02-19T04:49:47.669Z,1.77
2024-02-19T04:52:14.143Z,1.80
2024-02-19T04:54:40.674Z,2.22
2024-02-19T04:57:07.101Z,2.00
2024-02-19T04:59:33.542Z,1.77
2024-02-19T05:02:00.099Z,1.65
2024-02-19T05:04:26.719Z,1.77
2024-02-19T05:06:53.256Z,2.30
2024-02-19T05:09:19.738Z,2.17
2024-02-19T05:11:46.154Z,2.45
2024-02-19T05:14:12.576Z,2.22
2024-02-19T05:16:39.006Z,2.00
2024-02-19T05:19:05.584Z,2.20
2024-02-19T05:21:32.111Z,2.00
2024-02-19T05:23:58.565Z,2.30
2024-02-19T05:26:25.991Z,1.95
2024-02-19T05:28:53.121Z,2.50
2024-02-19T05:31:35.331Z,1.98
2024-02-19T05:34:03.334Z,2.10
2024-02-19T05:36:29.785Z,1.77
2024-02-19T05:38:56.186Z,2.00
2024-02-19T05:41:22.613Z,1.92
2024-02-19T05:43:49.053Z,1.75
2024-02-19T05:46:15.833Z,1.95
2024-02-19T05:48:43.158Z,2.08
2024-02-19T05:51:11.537Z,2.10
2024-02-19T05:53:38.321Z,2.40
2024-02-19T05:56:05.269Z,2.42
2024-02-19T05:58:32.250Z,3.10
2024-02-19T06:00:58.864Z,3.17
2024-02-19T06:03:25.786Z,3.72
2024-02-19T06:05:52.394Z,4.32
2024-02-19T06:08:18.796Z,4.47
2024-02-19T06:10:45.381Z,4.82
2024-02-19T06:13:12.144Z,5.65
2024-02-19T06:15:38.600Z,4.90
2024-02-19T06:18:05.443Z,5.22
2024-02-19T06:20:31.898Z,4.82
2024-02-19T06:22:58.312Z,4.80
2024-02-19T06:25:24.873Z,5.03
2024-02-19T06:27:51.507Z,4.57
2024-02-19T06:30:18.023Z,4.18
2024-02-19T06:32:44.517Z,4.97
2024-02-19T06:35:11.079Z,4.20
2024-02-19T06:37:37.556Z,5.07
2024-02-19T06:40:04.296Z,4.88
2024-02-19T06:42:30.755Z,4.50
2024-02-19T06:44:57.149Z,4.40
2024-02-19T06:47:23.607Z,4.28
2024-02-19T06:49:50.131Z,4.22
2024-02-19T06:52:16.710Z,4.13
2024-02-19T06:54:43.193Z,3.78
2024-02-19T06:57:09.644Z,4.43
2024-02-19T06:59:36.097Z,4.28
2024-02-19T07:02:06.801Z,3.85
2024-02-19T07:04:34.741Z,3.90
2024-02-19T07:07:01.501Z,4.82
2024-02-19T07:09:27.958Z,4.28
2024-02-19T07:11:54.395Z,4.95
2024-02-19T07:14:20.975Z,4.75
2024-02-19T07:16:47.392Z,4.45
2024-02-19T07:19:13.899Z,4.78
2024-02-19T07:21:40.408Z,4.40
2024-02-19T07:24:06.903Z,4.10
2024-02-19T07:26:33.319Z,4.00
2024-02-19T07:28:59.791Z,3.90
2024-02-19T07:31:26.321Z,3.40
2024-02-19T07:33:53.029Z,3.72
2024-02-19T07:36:19.760Z,4.50
2024-02-19T07:38:46.205Z,4.45
2024-02-19T07:41:16.641Z,4.97
2024-02-19T07:43:44.346Z,3.33
2024-02-19T07:46:14.073Z,3.30
2024-02-19T07:48:40.772Z,2.60
2024-02-19T07:51:07.636Z,2.55
2024-02-19T07:53:34.058Z,2.58
2024-02-19T07:56:07.247Z,2.40
2024-02-19T07:58:34.287Z,2.67
2024-02-19T08:01:04.262Z,2.63
2024-02-19T08:03:33.356Z,3.10
2024-02-19T08:05:59.919Z,3.30
2024-02-19T08:08:26.696Z,3.70
2024-02-19T08:10:53.422Z,3.53
2024-02-19T08:13:19.977Z,3.38
2024-02-19T08:15:46.644Z,2.97
2024-02-19T08:18:13.121Z,2.90
2024-02-19T08:20:42.012Z,3.00
2024-02-19T08:23:08.473Z,3.45
2024-02-19T08:25:35.017Z,3.00
2024-02-19T08:28:02.000Z,2.63
2024-02-19T08:30:28.476Z,2.72
2024-02-19T08:32:54.929Z,2.97
2024-02-19T08:35:21.501Z,2.97
2024-02-19T08:37:47.960Z,2.80
2024-02-19T08:40:14.403Z,2.80
2024-02-19T08:42:40.946Z,3.50
2024-02-19T08:45:07.661Z,2.50
2024-02-19T08:47:34.138Z,3.28
2024-02-19T08:50:00.725Z,3.30
2024-02-19T08:52:27.311Z,3.03
2024-02-19T08:54:53.849Z,3.00
2024-02-19T08:57:20.292Z,3.20
2024-02-19T08:59:46.713Z,2.47
2024-02-19T09:02:16.945Z,2.83
2024-02-19T09:04:44.978Z,2.60
2024-02-19T09:07:12.227Z,2.60
2024-02-19T09:09:39.078Z,2.70
2024-02-19T09:12:05.804Z,3.45
2024-02-19T09:14:32.248Z,5.32
2024-02-19T09:16:58.663Z,3.50
2024-02-19T09:19:25.157Z,4.18
2024-02-19T09:21:51.697Z,4.97
2024-02-19T09:24:18.158Z,6.55
2024-02-19T09:26:44.588Z,3.80
2024-02-19T09:29:11.048Z,3.95
2024-02-19T09:31:37.579Z,3.22
2024-02-19T09:34:04.246Z,3.50
2024-02-19T09:36:30.757Z,3.00
2024-02-19T09:38:57.189Z,2.58
2024-02-19T09:41:23.850Z,3.47
2024-02-19T09:43:50.438Z,3.40
2024-02-19T09:46:18.415Z,4.97
2024-02-19T09:48:48.074Z,5.10
2024-02-19T09:51:29.210Z,4.55
2024-02-19T09:56:26.492Z,4.15
2024-02-19T09:58:53.187Z,3.42
2024-02-19T10:01:19.908Z,4.40
2024-02-19T10:03:47.019Z,5.50
2024-02-19T10:06:13.716Z,5.22
2024-02-19T10:08:40.221Z,4.60
2024-02-19T10:11:06.663Z,4.20
2024-02-19T10:13:33.069Z,5.45
2024-02-19T10:15:59.549Z,5.35
2024-02-19T10:18:26.082Z,5.30
2024-02-19T10:20:52.540Z,5.85
2024-02-19T10:23:23.357Z,5.53
2024-02-19T10:25:50.302Z,5.20
2024-02-19T10:28:19.074Z,5.55
2024-02-19T10:30:45.568Z,5.70
2024-02-19T10:33:12.101Z,4.72
2024-02-19T10:35:38.571Z,5.03
2024-02-19T10:38:05.104Z,4.75
2024-02-19T10:40:31.668Z,5.30
2024-02-19T10:42:59.155Z,5.55
2024-02-19T10:45:25.991Z,4.85
2024-02-19T10:47:56.049Z,4.30
2024-02-19T10:50:22.625Z,4.88
2024-02-19T10:52:49.630Z,5.22
2024-02-19T10:55:20.138Z,5.95
2024-02-19T10:57:56.127Z,8.00
2024-02-19T11:00:24.412Z,5.72
2024-02-19T11:03:03.171Z,5.65
2024-02-19T11:05:29.674Z,4.90
2024-02-19T11:07:56.249Z,5.68
2024-02-19T11:10:23.262Z,5.80
2024-02-19T11:12:49.782Z,6.47
2024-02-19T11:15:16.384Z,6.30
2024-02-19T11:17:42.839Z,6.50
2024-02-19T11:20:09.833Z,5.70
2024-02-19T11:22:36.238Z,6.20
2024-02-19T11:25:02.787Z,6.97
2024-02-19T11:27:29.237Z,6.30
2024-02-19T11:29:57.088Z,6.30
2024-02-19T11:32:23.646Z,5.85
2024-02-19T11:34:51.852Z,6.15
2024-02-19T11:37:19.544Z,5.68
2024-02-19T11:39:46.382Z,6.40
2024-02-19T11:42:13.772Z,6.00
2024-02-19T11:44:40.574Z,5.70
2024-02-19T11:47:09.146Z,6.05
2024-02-19T11:49:35.908Z,5.07
2024-02-19T11:52:08.287Z,5.22
2024-02-19T11:54:39.202Z,5.80
2024-02-19T11:57:05.627Z,5.00
2024-02-19T11:59:32.670Z,5.13
2024-02-19T12:01:59.388Z,4.20
2024-02-19T12:04:26.201Z,4.32
2024-02-19T12:06:52.843Z,4.53
2024-02-19T12:09:19.686Z,4.30
2024-02-19T12:11:47.785Z,4.72
2024-02-19T12:14:15.173Z,5.03
2024-02-19T12:16:41.592Z,5.75
2024-02-19T12:19:08.114Z,4.90
2024-02-19T12:21:34.850Z,4.90
2024-02-19T12:24:01.897Z,5.88
2024-02-19T12:26:28.350Z,7.30
2024-02-19T12:28:54.794Z,10.55
2024-02-19T12:31:21.382Z,6.75
2024-02-19T12:33:48.027Z,7.95
2024-02-19T12:36:14.908Z,7.05
2024-02-19T12:38:44.870Z,7.57
2024-02-19T12:41:12.219Z,6.65
2024-02-19T12:43:39.331Z,7.72
2024-02-19T12:46:06.745Z,6.07
2024-02-19T12:48:34.199Z,6.85
2024-02-19T12:51:01.946Z,7.85
2024-02-19T12:53:32.003Z,7.53
2024-02-19T12:55:58.602Z,7.38
2024-02-19T12:58:25.247Z,8.10
2024-02-19T13:00:52.093Z,7.00
2024-02-19T13:03:18.754Z,7.63
2024-02-19T13:05:45.722Z,7.00
2024-02-19T13:08:12.743Z,7.13
2024-02-19T13:10:39.436Z,6.60
2024-02-19T13:13:06.844Z,6.75
2024-02-19T13:15:33.627Z,6.70
2024-02-19T13:18:00.153Z,6.57
2024-02-19T13:20:26.694Z,6.40
2024-02-19T13:22:53.236Z,9.23
2024-02-19T13:25:19.777Z,9.93
2024-02-19T13:27:46.281Z,6.78
2024-02-19T13:30:12.764Z,6.00
2024-02-19T13:32:39.277Z,5.60
2024-02-19T13:35:06.050Z,5.63
2024-02-19T13:37:32.552Z,5.50
2024-02-19T13:39:59.001Z,5.80
2024-02-19T13:42:25.541Z,4.65
2024-02-19T13:44:51.947Z,5.63
2024-02-19T13:47:18.377Z,5.35
2024-02-19T13:49:44.943Z,6.18
2024-02-19T13:52:11.514Z,6.07
2024-02-19T13:54:37.977Z,6.03
2024-02-19T13:57:04.657Z,4.95
2024-02-19T13:59:31.125Z,5.93
2024-02-19T14:01:57.987Z,5.40
2024-02-19T14:04:24.553Z,5.88
2024-02-19T14:06:51.117Z,6.00
2024-02-19T14:09:17.631Z,5.88
2024-02-19T14:11:44.122Z,5.15
2024-02-19T14:14:10.575Z,6.07
2024-02-19T14:16:37.253Z,5.53
2024-02-19T14:19:03.875Z,5.68
2024-02-19T14:21:30.759Z,7.30
2024-02-19T14:23:57.264Z,5.75
2024-02-19T14:26:24.322Z,7.50
2024-02-19T14:28:51.769Z,5.70
2024-02-19T14:31:18.234Z,5.80
2024-02-19T14:33:44.743Z,6.82
2024-02-19T14:36:11.885Z,7.15
2024-02-19T14:38:38.732Z,5.88
2024-02-19T14:41:05.199Z,6.25
2024-02-19T14:43:31.862Z,6.30
2024-02-19T14:45:59.480Z,5.25
2024-02-19T14:48:26.099Z,6.30
2024-02-19T14:50:53.368Z,6.18
2024-02-19T14:53:19.855Z,7.10
2024-02-19T14:55:46.283Z,6.22
2024-02-19T14:58:12.859Z,8.13
2024-02-19T15:00:39.303Z,6.45
2024-02-19T15:03:05.785Z,6.90
2024-02-19T15:05:32.480Z,5.35
2024-02-19T15:07:59.152Z,5.63
2024-02-19T15:10:26.198Z,5.03
2024-02-19T15:12:56.309Z,6.15
2024-02-19T15:15:23.460Z,6.13
2024-02-19T15:17:50.527Z,5.65
2024-02-19T15:20:17.656Z,6.60
2024-02-19T15:22:44.216Z,7.18
2024-02-19T15:25:10.842Z,6.78
2024-02-19T15:27:37.372Z,6.78
2024-02-19T15:30:05.113Z,7.07
2024-02-19T15:32:31.537Z,7.43
2024-02-19T15:34:58.069Z,7.35
2024-02-19T15:37:24.542Z,7.45
2024-02-19T15:39:51.127Z,7.15
2024-02-19T15:42:17.638Z,7.45
2024-02-19T15:44:44.116Z,8.05
2024-02-19T15:47:10.543Z,8.30
2024-02-19T15:49:37.123Z,7.90
2024-02-19T15:52:03.791Z,9.20
2024-02-19T15:54:30.410Z,8.05
2024-02-19T15:56:56.965Z,7.90
2024-02-19T15:59:23.367Z,9.38
2024-02-19T16:01:50.341Z,8.55
2024-02-19T16:04:19.791Z,8.35
2024-02-19T16:06:46.416Z,8.40
2024-02-19T16:09:13.199Z,7.22
2024-02-19T16:11:39.644Z,8.70
2024-02-19T16:14:06.112Z,8.55
2024-02-19T16:16:32.742Z,8.02
2024-02-19T16:18:59.302Z,8.80
2024-02-19T16:21:25.785Z,9.52
2024-02-19T16:23:52.231Z,9.77
2024-02-19T16:26:18.643Z,10.15
2024-02-19T16:28:45.073Z,11.20
2024-02-19T16:31:11.789Z,11.00
2024-02-19T16:33:39.685Z,11.07
2024-02-19T16:36:09.039Z,12.40
2024-02-19T16:38:35.748Z,12.73
2024-02-19T16:41:02.170Z,12.32
2024-02-19T16:43:28.677Z,13.50
2024-02-19T16:45:55.199Z,13.68
2024-02-19T16:48:21.905Z,15.25
2024-02-19T16:50:49.533Z,14.55
2024-02-19T16:53:15.940Z,15.38
2024-02-19T16:55:42.712Z,16.13
2024-02-19T16:58:09.154Z,16.13
2024-02-19T17:00:35.672Z,17.52
2024-02-19T17:03:02.158Z,16.75
2024-02-19T17:05:28.726Z,18.65
2024-02-19T17:07:55.394Z,17.35
2024-02-19T17:10:21.985Z,19.42
2024-02-19T17:12:48.453Z,18.98
2024-02-19T17:15:14.924Z,22.27
2024-02-19T17:17:41.444Z,20.60
2024-02-19T17:20:08.664Z,22.95
2024-02-19T17:22:35.199Z,22.52
2024-02-19T17:25:01.804Z,20.13
2024-02-19T17:27:28.234Z,20.83
2024-02-19T17:29:54.674Z,21.10
2024-02-19T17:32:21.085Z,21.67
2024-02-19T17:34:47.715Z,24.00
2024-02-19T17:37:14.239Z,23.02
2024-02-19T17:39:40.753Z,23.33
2024-02-19T17:42:07.200Z,24.75
2024-02-19T17:44:33.611Z,24.75
2024-02-19T17:47:00.059Z,23.98
2024-02-19T17:49:26.678Z,26.25
2024-02-19T17:51:53.296Z,25.02
2024-02-19T17:54:20.142Z,27.33
2024-02-19T17:56:47.192Z,26.08
2024-02-19T17:59:13.630Z,25.30
2024-02-19T18:01:40.153Z,26.77
2024-02-19T18:04:06.730Z,25.33
2024-02-19T18:06:34.373Z,25.42
2024-02-19T18:09:01.563Z,27.52
2024-02-19T18:11:27.998Z,26.85
2024-02-19T18:13:54.522Z,25.33
2024-02-19T18:16:23.753Z,25.67
2024-02-19T18:18:50.335Z,24.90
2024-02-19T18:21:16.991Z,24.02
2024-02-19T18:23:43.513Z,24.48
2024-02-19T18:26:10.109Z,24.50
2024-02-19T18:28:36.569Z,22.40
2024-02-19T18:31:03.614Z,22.98
2024-02-19T18:33:30.037Z,23.33
2024-02-19T18:35:56.559Z,21.58
2024-02-19T18:38:24.499Z,22.70
2024-02-19T18:40:50.922Z,20.88
2024-02-19T18:43:17.355Z,22.45
2024-02-19T18:45:43.782Z,22.80
2024-02-19T18:48:10.260Z,22.55
2024-02-19T18:50:36.753Z,21.20
2024-02-19T18:53:03.189Z,20.25
2024-02-19T18:55:29.850Z,19.67
2024-02-19T18:57:56.643Z,20.05
2024-02-19T19:00:23.251Z,18.88
2024-02-19T19:02:50.115Z,18.83
2024-02-19T19:05:16.764Z,16.98
2024-02-19T19:07:43.332Z,16.65
2024-02-19T19:10:10.110Z,13.82
2024-02-19T19:12:36.586Z,12.18
2024-02-19T19:15:03.084Z,10.45
2024-02-19T19:17:29.638Z,9.27
2024-02-19T19:19:56.228Z,8.30
2024-02-19T19:22:22.797Z,8.77
2024-02-19T19:24:49.400Z,8.65
2024-02-19T19:27:15.921Z,7.57
2024-02-19T19:29:42.354Z,9.77
2024-02-19T19:32:08.768Z,9.88
2024-02-19T19:34:35.253Z,12.05
2024-02-19T19:37:01.747Z,12.15
2024-02-19T19:39:28.221Z,12.50
2024-02-19T19:41:54.691Z,12.18
2024-02-19T19:44:21.132Z,11.85
2024-02-19T19:46:47.570Z,10.55
2024-02-19T19:49:14.030Z,10.55
2024-02-19T19:51:40.512Z,10.00
2024-02-19T19:54:06.928Z,10.20
2024-02-19T19:56:35.631Z,9.65
2024-02-19T19:59:02.123Z,8.70
2024-02-19T20:01:28.691Z,8.75
2024-02-19T20:03:55.189Z,8.15
2024-02-19T20:06:21.736Z,8.05
2024-02-19T20:08:48.244Z,7.45
2024-02-19T20:11:14.706Z,8.02
2024-02-19T20:13:41.224Z,7.70
2024-02-19T20:16:07.751Z,7.63
2024-02-19T20:18:34.197Z,7.88
2024-02-19T20:21:01.628Z,7.13
2024-02-19T20:23:30.578Z,7.65
2024-02-19T20:25:58.049Z,7.43
2024-02-19T20:28:24.517Z,7.85
2024-02-19T20:30:51.050Z,7.82
2024-02-19T20:33:17.587Z,7.75
2024-02-19T20:35:44.046Z,9.05
2024-02-19T20:38:10.474Z,8.75
2024-02-19T20:40:37.229Z,7.57
2024-02-19T20:43:04.029Z,9.20
2024-02-19T20:45:30.486Z,8.90
2024-02-19T20:47:57.066Z,9.65
2024-02-19T20:50:23.580Z,10.05
2024-02-19T20:52:50.062Z,10.23
2024-02-19T20:55:16.629Z,10.35
2024-02-19T20:57:43.120Z,10.52
2024-02-19T21:00:09.854Z,10.10
2024-02-19T21:02:39.602Z,9.85
2024-02-19T21:05:09.732Z,9.68
2024-02-19T21:07:37.576Z,10.07
2024-02-19T21:10:05.273Z,9.27
2024-02-19T21:12:31.842Z,9.70
2024-02-19T21:14:58.303Z,9.40
2024-02-19T21:17:24.849Z,8.70
2024-02-19T21:19:51.448Z,9.55
2024-02-19T21:22:18.007Z,8.75
2024-02-19T21:24:44.459Z,8.70
2024-02-19T21:27:10.905Z,8.40
2024-02-19T21:29:37.339Z,9.18
2024-02-19T21:32:03.898Z,8.00
2024-02-19T21:34:31.814Z,9.07
2024-02-19T21:36:58.571Z,8.88
2024-02-19T21:39:25.114Z,8.40
2024-02-19T21:41:51.604Z,8.02
2024-02-19T21:44:18.018Z,9.07
2024-02-19T21:46:44.438Z,9.25
2024-02-19T21:49:11.002Z,9.32
2024-02-19T21:51:40.753Z,9.30
2024-02-19T21:54:07.156Z,8.25
2024-02-19T21:56:33.575Z,8.82
2024-02-19T21:59:00.080Z,8.25
2024-02-19T22:01:26.645Z,8.77
2024-02-19T22:03:53.382Z,8.90
2024-02-19T22:06:19.914Z,8.18
2024-02-19T22:08:46.378Z,8.32
2024-02-19T22:11:12.839Z,9.13
2024-02-19T22:13:39.338Z,8.77
2024-02-19T22:16:06.260Z,8.18
2024-02-19T22:18:32.827Z,7.68
2024-02-19T22:20:59.358Z,8.25
2024-02-19T22:23:25.782Z,7.78
2024-02-19T22:25:52.212Z,7.47
2024-02-19T22:28:18.826Z,7.90
2024-02-19T22:30:45.398Z,7.38
2024-02-19T22:33:11.940Z,7.85
2024-02-19T22:35:38.501Z,7.38
2024-02-19T22:38:05.064Z,7.07
2024-02-19T22:40:31.518Z,8.02
2024-02-19T22:42:58.702Z,8.20
2024-02-19T22:45:25.252Z,7.10
2024-02-19T22:47:51.863Z,7.22
2024-02-19T22:50:18.383Z,6.93
2024-02-19T22:52:45.746Z,7.00
2024-02-19T22:55:13.365Z,6.38
2024-02-19T22:57:39.793Z,6.55
2024-02-19T23:00:06.894Z,7.10
2024-02-19T23:02:33.297Z,6.05
2024-02-19T23:04:59.746Z,6.63
2024-02-19T23:07:26.241Z,5.72
2024-02-19T23:09:52.727Z,6.55
2024-02-19T23:12:19.140Z,6.03
2024-02-19T23:14:45.614Z,5.90
2024-02-19T23:17:12.031Z,5.88
2024-02-19T23:19:38.542Z,6.00
2024-02-19T23:22:05.128Z,7.05
2024-02-19T23:24:31.564Z,6.05
2024-02-19T23:26:57.981Z,6.82
2024-02-19T23:29:24.415Z,6.57
2024-02-19T23:31:50.849Z,6.45
2024-02-19T23:34:17.494Z,5.93
2024-02-19T23:36:44.109Z,5.55
2024-02-19T23:39:11.032Z,7.38
2024-02-19T23:41:37.453Z,6.90
2024-02-19T23:44:03.942Z,7.30
2024-02-19T23:46:30.467Z,6.20
2024-02-19T23:48:57.038Z,6.40
2024-02-19T23:51:24.085Z,6.95
2024-02-19T23:53:50.516Z,6.22
2024-02-19T23:56:16.951Z,7.50
2024-02-19T23:58:43.538Z,7.10
